createdAt,value
2017-03-07T00:00:34.402Z,998.79
2017-03-07T00:01:34.419Z,998.82
2017-03-07T00:02:34.436Z,998.85
2017-03-07T00:03:34.454Z,998.86
2017-03-07T00:04:34.472Z,998.86
2017-03-07T00:05:34.489Z,998.86
2017-03-07T00:06:34.509Z,998.84
2017-03-07T00:07:34.525Z,998.93
2017-03-07T00:08:34.543Z,998.94
2017-03-07T00:09:34.560Z,998.93
2017-03-07T00:10:34.577Z,998.93
2017-03-07T00:11:34.596Z,998.93
2017-03-07T00:12:34.613Z,998.97
2017-03-07T00:13:34.630Z,998.93
2017-03-07T00:15:34.667Z,998.95
2017-03-07T00:16:34.685Z,998.99
2017-03-07T00:17:34.702Z,998.94
2017-03-07T00:18:34.719Z,999
2017-03-07T00:19:34.739Z,999
2017-03-07T00:20:34.754Z,999.01
2017-03-07T00:21:34.790Z,999.01
2017-03-07T00:22:34.790Z,999.09
2017-03-07T00:23:34.806Z,999.01
2017-03-07T00:24:34.824Z,999.04
2017-03-07T00:25:34.842Z,999.06
2017-03-07T00:26:34.859Z,999.06
2017-03-07T00:27:34.876Z,999.04
2017-03-07T00:28:34.894Z,999.05
2017-03-07T00:29:34.911Z,999.1
2017-03-07T00:30:34.929Z,999.06
2017-03-07T00:31:34.946Z,999.08
2017-03-07T00:32:34.964Z,999.13
2017-03-07T00:33:34.982Z,999.16
2017-03-07T00:34:35.000Z,999.14
2017-03-07T00:35:35.016Z,999.19
2017-03-07T00:36:35.034Z,999.16
2017-03-07T00:37:35.051Z,999.18
2017-03-07T00:38:35.069Z,999.16
2017-03-07T00:39:35.085Z,999.15
2017-03-07T00:40:35.103Z,999.17
2017-03-07T00:41:35.119Z,999.14
2017-03-07T00:42:35.137Z,999.13
2017-03-07T00:43:35.155Z,999.15
2017-03-07T00:44:35.197Z,999.14
2017-03-07T00:45:35.189Z,999.13
2017-03-07T00:47:35.224Z,999.22
2017-03-07T00:48:35.248Z,999.15
2017-03-07T00:49:35.258Z,999.14
2017-03-07T00:50:35.276Z,999.14
2017-03-07T00:51:35.294Z,999.15
2017-03-07T00:52:35.311Z,999.18
2017-03-07T00:53:35.328Z,999.14
2017-03-07T00:54:35.345Z,999.18
2017-03-07T00:55:35.363Z,999.18
2017-03-07T00:56:35.381Z,999.23
2017-03-07T00:57:35.397Z,999.19
2017-03-07T00:58:35.415Z,999.28
2017-03-07T00:59:35.432Z,999.18
2017-03-07T01:00:35.448Z,999.22
2017-03-07T01:01:35.466Z,999.2
2017-03-07T01:03:35.501Z,999.22
2017-03-07T01:04:35.518Z,999.2
2017-03-07T01:05:35.536Z,999.19
2017-03-07T01:06:35.553Z,999.12
2017-03-07T01:07:35.570Z,999.16
2017-03-07T01:08:35.587Z,999.18
2017-03-07T01:09:35.605Z,999.15
2017-03-07T01:10:35.622Z,999.19
2017-03-07T01:11:35.639Z,999.17
2017-03-07T01:12:35.657Z,999.28
2017-03-07T01:13:35.674Z,999.25
2017-03-07T01:14:35.692Z,999.19
2017-03-07T01:15:35.708Z,999.19
2017-03-07T01:16:35.726Z,999.24
2017-03-07T01:17:35.743Z,999.19
2017-03-07T01:19:35.778Z,999.24
2017-03-07T01:20:35.795Z,999.18
2017-03-07T01:21:35.814Z,999.26
2017-03-07T01:22:35.829Z,999.23
2017-03-07T01:23:35.845Z,999.28
2017-03-07T01:24:35.863Z,999.25
2017-03-07T01:25:35.880Z,999.28
2017-03-07T01:26:35.900Z,999.29
2017-03-07T01:27:35.916Z,999.26
2017-03-07T01:28:35.933Z,999.26
2017-03-07T01:29:35.948Z,999.27
2017-03-07T01:30:35.966Z,999.32
2017-03-07T01:31:35.984Z,999.34
2017-03-07T01:32:36.001Z,999.34
2017-03-07T01:33:36.018Z,999.31
2017-03-07T01:35:36.052Z,999.34
2017-03-07T01:36:36.071Z,999.3
2017-03-07T01:37:36.087Z,999.3
2017-03-07T01:38:36.104Z,999.31
2017-03-07T01:39:36.122Z,999.34
2017-03-07T01:40:36.138Z,999.34
2017-03-07T01:41:36.155Z,999.35
2017-03-07T01:42:36.173Z,999.35
2017-03-07T01:43:36.191Z,999.36
2017-03-07T01:44:36.207Z,999.41
2017-03-07T01:45:36.225Z,999.39
2017-03-07T01:46:36.242Z,999.42
2017-03-07T01:47:36.260Z,999.48
2017-03-07T01:48:36.277Z,999.44
2017-03-07T01:50:36.313Z,999.48
2017-03-07T01:51:36.328Z,999.51
2017-03-07T01:52:36.347Z,999.53
2017-03-07T01:53:36.363Z,999.5
2017-03-07T01:54:36.382Z,999.5
2017-03-07T01:55:36.399Z,999.51
2017-03-07T01:56:36.416Z,999.55
2017-03-07T01:57:36.433Z,999.6
2017-03-07T01:58:36.450Z,999.58
2017-03-07T01:59:36.468Z,999.62
2017-03-07T02:00:36.485Z,999.6
2017-03-07T02:01:36.503Z,999.66
2017-03-07T02:02:36.520Z,999.62
2017-03-07T02:03:36.537Z,999.6
2017-03-07T02:04:36.554Z,999.61
2017-03-07T02:05:36.573Z,999.63
2017-03-07T02:06:36.589Z,999.6
2017-03-07T02:07:36.606Z,999.59
2017-03-07T02:08:36.624Z,999.65
2017-03-07T02:09:36.640Z,999.66
2017-03-07T02:10:36.658Z,999.69
2017-03-07T02:11:36.676Z,999.66
2017-03-07T02:12:36.695Z,999.68
2017-03-07T02:13:36.708Z,999.7
2017-03-07T02:14:36.727Z,999.69
2017-03-07T02:15:36.745Z,999.74
2017-03-07T02:16:36.762Z,999.68
2017-03-07T02:17:36.779Z,999.65
2017-03-07T02:18:36.797Z,999.71
2017-03-07T02:19:36.813Z,999.67
2017-03-07T02:20:36.832Z,999.72
2017-03-07T02:22:36.865Z,999.73
2017-03-07T02:23:36.883Z,999.77
2017-03-07T02:24:36.899Z,999.78
2017-03-07T02:25:36.917Z,999.75
2017-03-07T02:26:36.934Z,999.79
2017-03-07T02:27:36.952Z,999.77
2017-03-07T02:28:36.968Z,999.83
2017-03-07T02:29:36.985Z,999.8
2017-03-07T02:30:37.003Z,999.8
2017-03-07T02:31:37.020Z,999.81
2017-03-07T02:32:37.038Z,999.84
2017-03-07T02:33:37.054Z,999.82
2017-03-07T02:34:37.073Z,999.86
2017-03-07T02:35:37.089Z,999.86
2017-03-07T02:36:37.106Z,999.88
2017-03-07T02:38:37.141Z,999.89
2017-03-07T02:39:37.309Z,999.87
2017-03-07T02:40:37.175Z,999.92
2017-03-07T02:41:37.192Z,999.9
2017-03-07T02:42:37.208Z,999.94
2017-03-07T02:43:37.226Z,999.93
2017-03-07T02:44:37.244Z,999.96
2017-03-07T02:45:37.261Z,999.96
2017-03-07T02:46:37.278Z,999.99
2017-03-07T02:47:37.295Z,999.97
2017-03-07T02:48:37.312Z,999.98
2017-03-07T02:49:37.331Z,999.98
2017-03-07T02:50:37.346Z,999.96
2017-03-07T02:51:37.364Z,1000.03
2017-03-07T02:52:37.382Z,999.99
2017-03-07T02:54:37.416Z,1000.02
2017-03-07T02:55:37.433Z,1000.14
2017-03-07T02:56:37.451Z,1000.07
2017-03-07T02:57:37.469Z,1000.07
2017-03-07T02:58:37.485Z,1000.12
2017-03-07T02:59:37.503Z,1000.09
2017-03-07T03:00:37.569Z,1000.12
2017-03-07T03:01:37.536Z,1000.18
2017-03-07T03:02:37.557Z,1000.14
2017-03-07T03:03:37.572Z,1000.15
2017-03-07T03:04:37.587Z,1000.16
2017-03-07T03:05:37.604Z,1000.13
2017-03-07T03:06:37.622Z,1000.15
2017-03-07T03:07:37.639Z,1000.15
2017-03-07T03:08:37.657Z,1000.18
2017-03-07T03:10:37.691Z,1000.23
2017-03-07T03:11:37.708Z,1000.23
2017-03-07T03:12:37.724Z,1000.24
2017-03-07T03:13:37.742Z,1000.29
2017-03-07T03:14:37.759Z,1000.29
2017-03-07T03:15:37.776Z,1000.3
2017-03-07T03:16:37.793Z,1000.31
2017-03-07T03:17:37.810Z,1000.33
2017-03-07T03:18:37.828Z,1000.34
2017-03-07T03:19:37.844Z,1000.32
2017-03-07T03:20:37.862Z,1000.36
2017-03-07T03:21:37.879Z,1000.34
2017-03-07T03:22:37.896Z,1000.39
2017-03-07T03:23:37.913Z,1000.37
2017-03-07T03:25:37.948Z,1000.47
2017-03-07T03:26:37.964Z,1000.46
2017-03-07T03:27:37.985Z,1000.51
2017-03-07T03:28:37.999Z,1000.47
2017-03-07T03:29:38.016Z,1000.51
2017-03-07T03:30:38.033Z,1000.49
2017-03-07T03:31:38.051Z,1000.5
2017-03-07T03:32:38.067Z,1000.54
2017-03-07T03:33:38.083Z,1000.56
2017-03-07T03:34:38.100Z,1000.53
2017-03-07T03:35:38.118Z,1000.57
2017-03-07T03:36:38.135Z,1000.56
2017-03-07T03:37:38.152Z,1000.59
2017-03-07T03:38:38.169Z,1000.61
2017-03-07T03:39:38.185Z,1000.64
2017-03-07T03:40:38.203Z,1000.66
2017-03-07T03:41:38.219Z,1000.64
2017-03-07T03:42:38.236Z,1000.7
2017-03-07T03:43:38.254Z,1000.72
2017-03-07T03:44:38.269Z,1000.73
2017-03-07T03:45:38.287Z,1000.8
2017-03-07T03:46:38.304Z,1000.78
2017-03-07T03:47:38.321Z,1000.78
2017-03-07T03:48:38.338Z,1000.83
2017-03-07T03:49:38.354Z,1000.83
2017-03-07T03:50:38.372Z,1000.82
2017-03-07T03:51:38.389Z,1000.88
2017-03-07T03:52:38.406Z,1000.89
2017-03-07T03:53:38.422Z,1000.92
2017-03-07T03:54:38.439Z,1000.94
2017-03-07T03:55:38.456Z,1000.93
2017-03-07T03:57:38.490Z,1000.96
2017-03-07T03:58:38.508Z,1000.96
2017-03-07T03:59:38.524Z,1000.98
2017-03-07T04:00:38.540Z,1000.99
2017-03-07T04:01:38.558Z,1001
2017-03-07T04:02:38.575Z,1001.06
2017-03-07T04:03:38.592Z,1001.05
2017-03-07T04:04:38.608Z,1001.11
2017-03-07T04:05:38.625Z,1001.12
2017-03-07T04:06:38.645Z,1001.13
2017-03-07T04:07:38.659Z,1001.1
2017-03-07T04:08:38.676Z,1001.14
2017-03-07T04:09:38.694Z,1001.16
2017-03-07T04:10:38.710Z,1001.12
2017-03-07T04:11:38.727Z,1001.15
2017-03-07T04:13:38.761Z,1001.18
2017-03-07T04:14:38.777Z,1001.19
2017-03-07T04:15:38.797Z,1001.19
2017-03-07T04:16:38.811Z,1001.19
2017-03-07T04:17:38.827Z,1001.21
2017-03-07T04:18:38.844Z,1001.23
2017-03-07T04:19:38.862Z,1001.19
2017-03-07T04:20:38.878Z,1001.2
2017-03-07T04:21:38.894Z,1001.2
2017-03-07T04:22:38.911Z,1001.26
2017-03-07T04:23:38.928Z,1001.27
2017-03-07T04:24:38.945Z,1001.24
2017-03-07T04:25:38.961Z,1001.25
2017-03-07T04:26:38.978Z,1001.22
2017-03-07T04:27:38.995Z,1001.22
2017-03-07T04:29:39.028Z,1001.27
2017-03-07T04:30:39.045Z,1001.25
2017-03-07T04:31:39.063Z,1001.25
2017-03-07T04:32:39.078Z,1001.28
2017-03-07T04:33:39.095Z,1001.31
2017-03-07T04:34:39.114Z,1001.31
2017-03-07T04:35:39.129Z,1001.28
2017-03-07T04:36:39.144Z,1001.31
2017-03-07T04:37:39.162Z,1001.33
2017-03-07T04:38:39.178Z,1001.38
2017-03-07T04:39:39.195Z,1001.39
2017-03-07T04:40:39.213Z,1001.39
2017-03-07T04:41:39.228Z,1001.39
2017-03-07T04:42:39.245Z,1001.44
2017-03-07T04:43:39.262Z,1001.43
2017-03-07T04:45:39.296Z,1001.46
2017-03-07T04:46:39.312Z,1001.56
2017-03-07T04:47:39.328Z,1001.59
2017-03-07T04:48:39.345Z,1001.63
2017-03-07T04:49:39.361Z,1001.57
2017-03-07T04:50:39.427Z,1001.66
2017-03-07T04:51:39.394Z,1001.57
2017-03-07T04:52:39.411Z,1001.64
2017-03-07T04:53:39.428Z,1001.64
2017-03-07T04:54:39.444Z,1001.7
2017-03-07T04:55:39.460Z,1001.67
2017-03-07T04:56:39.477Z,1001.68
2017-03-07T04:57:39.494Z,1001.73
2017-03-07T04:58:39.510Z,1001.76
2017-03-07T05:00:39.543Z,1001.83
2017-03-07T05:01:39.559Z,1001.81
2017-03-07T05:02:39.575Z,1001.85
2017-03-07T05:03:39.592Z,1001.86
2017-03-07T05:04:39.609Z,1001.84
2017-03-07T05:05:39.624Z,1001.85
2017-03-07T05:06:39.641Z,1001.87
2017-03-07T05:07:39.658Z,1001.88
2017-03-07T05:08:39.673Z,1001.88
2017-03-07T05:09:39.690Z,1001.91
2017-03-07T05:10:39.707Z,1001.91
2017-03-07T05:11:39.723Z,1001.9
2017-03-07T05:12:39.738Z,1001.93
2017-03-07T05:13:39.755Z,1001.95
2017-03-07T05:14:39.771Z,1001.97
2017-03-07T05:15:39.788Z,1001.97
2017-03-07T05:16:39.803Z,1002.04
2017-03-07T05:17:39.820Z,1002
2017-03-07T05:18:39.837Z,1001.99
2017-03-07T05:19:39.851Z,1002.07
2017-03-07T05:20:39.868Z,1002.05
2017-03-07T05:21:39.885Z,1002.02
2017-03-07T05:22:39.931Z,1002.03
2017-03-07T05:23:39.917Z,1001.93
2017-03-07T05:24:39.935Z,1002.03
2017-03-07T05:25:39.951Z,1002.07
2017-03-07T05:26:39.966Z,1002.09
2017-03-07T05:27:39.982Z,1002.08
2017-03-07T05:28:39.999Z,1002.11
2017-03-07T05:29:40.015Z,1002.15
2017-03-07T05:30:40.031Z,1002.13
2017-03-07T05:32:40.064Z,1002.14
2017-03-07T05:33:40.080Z,1002.16
2017-03-07T05:34:40.095Z,1002.13
2017-03-07T05:35:40.112Z,1002.2
2017-03-07T05:36:40.128Z,1002.2
2017-03-07T05:37:40.146Z,1002.21
2017-03-07T05:38:40.160Z,1002.2
2017-03-07T05:39:40.180Z,1002.24
2017-03-07T05:40:40.193Z,1002.26
2017-03-07T05:41:40.209Z,1002.27
2017-03-07T05:42:40.225Z,1002.31
2017-03-07T05:43:40.242Z,1002.39
2017-03-07T05:44:40.257Z,1002.42
2017-03-07T05:45:40.274Z,1002.36
2017-03-07T05:46:40.290Z,1002.41
2017-03-07T05:48:40.323Z,1002.42
2017-03-07T05:49:40.338Z,1002.44
2017-03-07T05:50:40.355Z,1002.44
2017-03-07T05:51:40.372Z,1002.46
2017-03-07T05:52:40.386Z,1002.46
2017-03-07T05:53:40.403Z,1002.52
2017-03-07T05:54:40.419Z,1002.52
2017-03-07T05:55:40.436Z,1002.49
2017-03-07T05:56:40.450Z,1002.48
2017-03-07T05:57:40.468Z,1002.57
2017-03-07T05:58:40.534Z,1002.51
2017-03-07T05:59:40.500Z,1002.58
2017-03-07T06:00:40.516Z,1002.57
2017-03-07T06:01:40.532Z,1002.56
2017-03-07T06:02:40.549Z,1002.61
2017-03-07T06:04:40.580Z,1002.55
2017-03-07T06:05:40.597Z,1002.63
2017-03-07T06:06:40.613Z,1002.65
2017-03-07T06:07:40.628Z,1002.69
2017-03-07T06:08:40.644Z,1002.72
2017-03-07T06:09:40.661Z,1002.74
2017-03-07T06:10:40.677Z,1002.78
2017-03-07T06:11:40.692Z,1002.77
2017-03-07T06:12:40.711Z,1002.96
2017-03-07T06:13:40.728Z,1002.83
2017-03-07T06:14:40.740Z,1002.87
2017-03-07T06:15:40.807Z,1002.87
2017-03-07T06:16:40.773Z,1002.91
2017-03-07T06:17:40.790Z,1002.96
2017-03-07T06:18:40.805Z,1002.94
2017-03-07T06:20:40.837Z,1002.97
2017-03-07T06:21:40.855Z,1002.95
2017-03-07T06:22:40.869Z,1003.07
2017-03-07T06:23:40.885Z,1003.03
2017-03-07T06:24:40.901Z,1003.07
2017-03-07T06:25:40.917Z,1003.05
2017-03-07T06:26:40.934Z,1003.04
2017-03-07T06:27:40.950Z,1003.11
2017-03-07T06:28:40.966Z,1003.07
2017-03-07T06:29:40.982Z,1003.1
2017-03-07T06:30:40.998Z,1003.14
2017-03-07T06:31:41.014Z,1003.13
2017-03-07T06:32:41.030Z,1003.11
2017-03-07T06:33:41.047Z,1003.19
2017-03-07T06:35:41.079Z,1003.23
2017-03-07T06:36:41.094Z,1003.24
2017-03-07T06:37:41.111Z,1003.23
2017-03-07T06:38:41.127Z,1003.26
2017-03-07T06:39:41.143Z,1003.29
2017-03-07T06:40:41.159Z,1003.33
2017-03-07T06:41:41.175Z,1003.27
2017-03-07T06:42:41.192Z,1003.34
2017-03-07T06:43:41.207Z,1003.37
2017-03-07T06:44:41.224Z,1003.41
2017-03-07T06:45:41.239Z,1003.4
2017-03-07T06:46:41.256Z,1003.42
2017-03-07T06:47:41.271Z,1003.49
2017-03-07T06:48:41.287Z,1003.49
2017-03-07T06:49:41.304Z,1003.5
2017-03-07T06:50:41.321Z,1003.54
2017-03-07T06:51:41.337Z,1003.51
2017-03-07T06:52:41.352Z,1003.47
2017-03-07T06:53:41.368Z,1003.56
2017-03-07T06:54:41.384Z,1003.57
2017-03-07T06:55:41.401Z,1003.63
2017-03-07T06:56:41.417Z,1003.57
2017-03-07T06:57:41.435Z,1003.62
2017-03-07T06:58:41.449Z,1003.6
2017-03-07T06:59:41.465Z,1003.6
2017-03-07T07:00:41.482Z,1003.62
2017-03-07T07:01:41.549Z,1003.67
2017-03-07T07:02:41.513Z,1003.68
2017-03-07T07:03:41.530Z,1003.69
2017-03-07T07:04:41.547Z,1003.74
2017-03-07T07:05:41.562Z,1003.75
2017-03-07T07:07:41.595Z,1003.81
2017-03-07T07:08:41.612Z,1003.79
2017-03-07T07:09:41.627Z,1003.84
2017-03-07T07:10:41.643Z,1003.85
2017-03-07T07:11:41.660Z,1003.92
2017-03-07T07:12:41.676Z,1003.93
2017-03-07T07:13:41.692Z,1003.97
2017-03-07T07:14:41.709Z,1003.93
2017-03-07T07:15:41.725Z,1003.96
2017-03-07T07:16:41.741Z,1003.94
2017-03-07T07:17:41.757Z,1003.93
2017-03-07T07:18:41.774Z,1003.94
2017-03-07T07:19:41.790Z,1004
2017-03-07T07:20:41.805Z,1004.04
2017-03-07T07:21:41.822Z,1004.06
2017-03-07T07:23:41.855Z,1004.08
2017-03-07T07:24:41.871Z,1004.14
2017-03-07T07:25:41.887Z,1004.2
2017-03-07T07:26:41.904Z,1004.17
2017-03-07T07:27:41.920Z,1004.17
2017-03-07T07:28:41.936Z,1004.2
2017-03-07T07:29:41.953Z,1004.2
2017-03-07T07:30:41.969Z,1004.18
2017-03-07T07:31:42.035Z,1004.22
2017-03-07T07:32:42.001Z,1004.24
2017-03-07T07:33:42.018Z,1004.23
2017-03-07T07:34:42.035Z,1004.24
2017-03-07T07:35:42.051Z,1004.25
2017-03-07T07:36:42.067Z,1004.29
2017-03-07T07:37:42.084Z,1004.25
2017-03-07T07:39:42.116Z,1004.3
2017-03-07T07:40:42.132Z,1004.3
2017-03-07T07:41:42.148Z,1004.33
2017-03-07T07:42:42.166Z,1004.33
2017-03-07T07:43:42.180Z,1004.34
2017-03-07T07:44:42.198Z,1004.33
2017-03-07T07:45:42.214Z,1004.42
2017-03-07T07:46:42.531Z,1004.42
2017-03-07T07:47:42.246Z,1004.45
2017-03-07T07:48:42.263Z,1004.43
2017-03-07T07:49:42.278Z,1004.43
2017-03-07T07:50:42.296Z,1004.47
2017-03-07T07:51:42.313Z,1004.44
2017-03-07T07:52:42.329Z,1004.42
2017-03-07T07:53:42.345Z,1004.47
2017-03-07T07:55:42.377Z,1004.47
2017-03-07T07:56:42.395Z,1004.44
2017-03-07T07:57:42.411Z,1004.44
2017-03-07T07:58:42.428Z,1004.49
2017-03-07T07:59:42.444Z,1004.5
2017-03-07T08:00:42.459Z,1004.5
2017-03-07T08:01:42.476Z,1004.5
2017-03-07T08:02:42.495Z,1004.53
2017-03-07T08:03:42.510Z,1004.54
2017-03-07T08:04:42.525Z,1004.54
2017-03-07T08:05:42.542Z,1004.57
2017-03-07T08:06:42.559Z,1004.6
2017-03-07T08:07:42.575Z,1004.57
2017-03-07T08:08:42.593Z,1004.61
2017-03-07T08:10:42.626Z,1004.6
2017-03-07T08:11:42.642Z,1004.64
2017-03-07T08:12:42.659Z,1004.68
2017-03-07T08:13:42.676Z,1004.61
2017-03-07T08:14:42.693Z,1004.64
2017-03-07T08:15:42.709Z,1004.67
2017-03-07T08:16:42.724Z,1004.7
2017-03-07T08:17:42.741Z,1004.69
2017-03-07T08:18:42.758Z,1004.72
2017-03-07T08:19:42.775Z,1004.76
2017-03-07T08:20:42.792Z,1004.77
2017-03-07T08:21:42.808Z,1004.77
2017-03-07T08:22:42.825Z,1004.78
2017-03-07T08:23:42.841Z,1004.73
2017-03-07T08:24:42.858Z,1004.77
2017-03-07T08:25:42.875Z,1004.77
2017-03-07T08:26:42.890Z,1004.77
2017-03-07T08:27:42.908Z,1004.85
2017-03-07T08:28:42.924Z,1004.86
2017-03-07T08:29:42.941Z,1004.87
2017-03-07T08:30:42.957Z,1004.89
2017-03-07T08:31:42.976Z,1004.85
2017-03-07T08:32:42.992Z,1004.85
2017-03-07T08:33:43.007Z,1004.82
2017-03-07T08:34:43.025Z,1004.84
2017-03-07T08:35:43.065Z,1004.9
2017-03-07T08:36:43.059Z,1004.9
2017-03-07T08:37:43.075Z,1004.88
2017-03-07T08:38:43.091Z,1004.91
2017-03-07T08:39:43.109Z,1004.94
2017-03-07T08:40:43.124Z,1004.93
2017-03-07T08:42:43.185Z,1004.96
2017-03-07T08:43:43.175Z,1004.99
2017-03-07T08:44:43.192Z,1005.01
2017-03-07T08:45:43.209Z,1005.01
2017-03-07T08:46:43.276Z,1005
2017-03-07T08:47:43.246Z,1005.03
2017-03-07T08:48:43.259Z,1005.04
2017-03-07T08:49:43.277Z,1005.06
2017-03-07T08:50:43.292Z,1005.13
2017-03-07T08:51:43.309Z,1005.12
2017-03-07T08:52:43.327Z,1005.1
2017-03-07T08:53:43.344Z,1005.13
2017-03-07T08:54:43.361Z,1005.15
2017-03-07T08:55:43.382Z,1005.16
2017-03-07T08:56:43.448Z,1005.2
2017-03-07T08:58:43.429Z,1005.2
2017-03-07T08:59:43.446Z,1005.2
2017-03-07T09:00:43.463Z,1005.2
2017-03-07T09:01:43.480Z,1005.2
2017-03-07T09:02:43.496Z,1005.22
2017-03-07T09:03:43.514Z,1005.22
2017-03-07T09:04:43.531Z,1005.29
2017-03-07T09:05:43.548Z,1005.19
2017-03-07T09:06:43.565Z,1005.27
2017-03-07T09:07:43.582Z,1005.18
2017-03-07T09:08:43.598Z,1005.28
2017-03-07T09:09:43.616Z,1005.31
2017-03-07T09:10:43.633Z,1005.31
2017-03-07T09:11:43.650Z,1005.32
2017-03-07T09:12:43.667Z,1005.38
2017-03-07T09:14:43.701Z,1005.42
2017-03-07T09:15:43.718Z,1005.44
2017-03-07T09:16:43.735Z,1005.47
2017-03-07T09:17:43.751Z,1005.48
2017-03-07T09:18:43.769Z,1005.53
2017-03-07T09:19:43.786Z,1005.52
2017-03-07T09:20:43.804Z,1005.58
2017-03-07T09:21:43.821Z,1005.56
2017-03-07T09:22:43.838Z,1005.56
2017-03-07T09:23:43.855Z,1005.62
2017-03-07T09:24:43.873Z,1005.58
2017-03-07T09:25:43.890Z,1005.61
2017-03-07T09:26:43.907Z,1005.62
2017-03-07T09:27:43.925Z,1005.65
2017-03-07T09:28:43.941Z,1005.65
2017-03-07T09:30:43.977Z,1005.7
2017-03-07T09:31:43.994Z,1005.73
2017-03-07T09:32:44.011Z,1005.68
2017-03-07T09:33:44.030Z,1005.76
2017-03-07T09:34:44.047Z,1005.77
2017-03-07T09:35:44.063Z,1005.82
2017-03-07T09:36:44.081Z,1005.78
2017-03-07T09:37:44.099Z,1005.81
2017-03-07T09:38:44.117Z,1005.83
2017-03-07T09:39:44.133Z,1005.85
2017-03-07T09:40:44.151Z,1005.89
2017-03-07T09:41:44.169Z,1005.91
2017-03-07T09:42:44.187Z,1005.9
2017-03-07T09:43:44.205Z,1005.92
2017-03-07T09:45:44.240Z,1005.97
2017-03-07T09:46:44.257Z,1006.01
2017-03-07T09:47:44.275Z,1006.03
2017-03-07T09:48:44.293Z,1006.03
2017-03-07T09:49:44.309Z,1006.05
2017-03-07T09:50:44.327Z,1006.06
2017-03-07T09:51:44.345Z,1006.07
2017-03-07T09:52:44.363Z,1006.03
2017-03-07T09:53:44.379Z,1006.1
2017-03-07T09:54:44.397Z,1006.1
2017-03-07T09:55:44.415Z,1006.16
2017-03-07T09:56:44.433Z,1006.15
2017-03-07T09:57:44.449Z,1006.13
2017-03-07T09:58:44.468Z,1006.14
2017-03-07T09:59:44.485Z,1006.19
2017-03-07T10:00:44.502Z,1006.13
2017-03-07T10:01:44.519Z,1006.19
2017-03-07T10:02:44.537Z,1006.17
2017-03-07T10:03:44.853Z,1006.19
2017-03-07T10:04:44.571Z,1006.23
2017-03-07T10:05:44.590Z,1006.19
2017-03-07T10:06:44.606Z,1006.22
2017-03-07T10:07:44.624Z,1006.15
2017-03-07T10:08:44.641Z,1006.19
2017-03-07T10:09:44.658Z,1006.19
2017-03-07T10:10:44.677Z,1006.22
2017-03-07T10:11:44.692Z,1006.2
2017-03-07T10:12:44.709Z,1006.19
2017-03-07T10:13:44.727Z,1006.28
2017-03-07T10:14:44.744Z,1006.32
2017-03-07T10:15:44.761Z,1006.32
2017-03-07T10:17:44.796Z,1006.3
2017-03-07T10:18:44.812Z,1006.37
2017-03-07T10:19:44.829Z,1006.35
2017-03-07T10:20:44.846Z,1006.39
2017-03-07T10:21:44.864Z,1006.44
2017-03-07T10:22:44.882Z,1006.4
2017-03-07T10:23:44.898Z,1006.46
2017-03-07T10:24:44.916Z,1006.47
2017-03-07T10:25:44.983Z,1006.48
2017-03-07T10:26:44.949Z,1006.49
2017-03-07T10:27:44.967Z,1006.53
2017-03-07T10:28:44.983Z,1006.49
2017-03-07T10:29:45.001Z,1006.53
2017-03-07T10:30:45.017Z,1006.57
2017-03-07T10:31:45.034Z,1006.59
2017-03-07T10:33:45.069Z,1006.6
2017-03-07T10:34:45.087Z,1006.62
2017-03-07T10:35:45.103Z,1006.65
2017-03-07T10:36:45.120Z,1006.71
2017-03-07T10:37:45.137Z,1006.7
2017-03-07T10:38:45.153Z,1006.72
2017-03-07T10:39:45.175Z,1006.68
2017-03-07T10:40:45.188Z,1006.69
2017-03-07T10:41:45.206Z,1006.73
2017-03-07T10:42:45.223Z,1006.79
2017-03-07T10:43:45.240Z,1006.81
2017-03-07T10:44:45.258Z,1006.82
2017-03-07T10:45:45.273Z,1006.87
2017-03-07T10:46:45.292Z,1006.81
2017-03-07T10:47:45.311Z,1006.85
2017-03-07T10:49:45.344Z,1006.87
2017-03-07T10:50:45.361Z,1006.87
2017-03-07T10:51:45.381Z,1006.87
2017-03-07T10:52:45.395Z,1006.9
2017-03-07T10:53:45.764Z,1006.91
2017-03-07T10:54:45.432Z,1006.93
2017-03-07T10:55:45.452Z,1006.95
2017-03-07T10:56:45.467Z,1006.98
2017-03-07T10:57:45.484Z,1007
2017-03-07T10:58:45.504Z,1007.01
2017-03-07T10:59:45.518Z,1006.97
2017-03-07T11:00:45.537Z,1007
2017-03-07T11:01:45.555Z,1007.04
2017-03-07T11:02:45.573Z,1007.07
2017-03-07T11:03:45.590Z,1007.02
2017-03-07T11:05:45.625Z,1007.07
2017-03-07T11:06:45.643Z,1007.09
2017-03-07T11:07:45.660Z,1007.08
2017-03-07T11:08:45.678Z,1007.12
2017-03-07T11:09:45.698Z,1007.09
2017-03-07T11:10:45.713Z,1007.16
2017-03-07T11:11:45.730Z,1007.14
2017-03-07T11:12:45.748Z,1007.14
2017-03-07T11:13:45.766Z,1007.17
2017-03-07T11:14:45.783Z,1007.18
2017-03-07T11:15:45.800Z,1007.18
2017-03-07T11:16:45.817Z,1007.17
2017-03-07T11:17:45.837Z,1007.16
2017-03-07T11:18:45.854Z,1007.21
2017-03-07T11:20:45.890Z,1007.23
2017-03-07T11:21:45.907Z,1007.18
2017-03-07T11:22:45.925Z,1007.19
2017-03-07T11:23:45.943Z,1007.19
2017-03-07T11:24:45.961Z,1007.19
2017-03-07T11:25:45.977Z,1007.22
2017-03-07T11:26:45.995Z,1007.27
2017-03-07T11:27:46.013Z,1007.22
2017-03-07T11:28:46.030Z,1007.26
2017-03-07T11:29:46.047Z,1007.23
2017-03-07T11:30:46.066Z,1007.29
2017-03-07T11:31:46.084Z,1007.26
2017-03-07T11:32:46.101Z,1007.27
2017-03-07T11:33:46.121Z,1007.28
2017-03-07T11:34:46.137Z,1007.32
2017-03-07T11:35:46.155Z,1007.31
2017-03-07T11:36:46.172Z,1007.33
2017-03-07T11:37:46.190Z,1007.35
2017-03-07T11:38:46.208Z,1007.31
2017-03-07T11:39:46.224Z,1007.39
2017-03-07T11:40:46.243Z,1007.37
2017-03-07T11:41:46.261Z,1007.37
2017-03-07T11:42:46.278Z,1007.37
2017-03-07T11:43:46.296Z,1007.42
2017-03-07T11:44:46.313Z,1007.4
2017-03-07T11:45:46.332Z,1007.5
2017-03-07T11:46:46.349Z,1007.44
2017-03-07T11:47:46.366Z,1007.5
2017-03-07T11:48:46.384Z,1007.54
2017-03-07T11:49:46.401Z,1007.53
2017-03-07T11:50:46.419Z,1007.53
2017-03-07T11:52:46.454Z,1007.58
2017-03-07T11:53:46.472Z,1007.56
2017-03-07T11:54:46.488Z,1007.56
2017-03-07T11:55:46.506Z,1007.55
2017-03-07T11:56:46.524Z,1007.55
2017-03-07T11:57:46.541Z,1007.57
2017-03-07T11:58:46.559Z,1007.53
2017-03-07T11:59:46.577Z,1007.51
2017-03-07T12:00:46.593Z,1007.54
2017-03-07T12:01:46.610Z,1007.57
2017-03-07T12:02:46.628Z,1007.53
2017-03-07T12:03:46.646Z,1007.5
2017-03-07T12:04:46.663Z,1007.52
2017-03-07T12:05:46.680Z,1007.51
2017-03-07T12:06:46.697Z,1007.5
2017-03-07T12:08:46.733Z,1007.56
2017-03-07T12:09:46.750Z,1007.62
2017-03-07T12:10:46.768Z,1007.63
2017-03-07T12:11:46.785Z,1007.65
2017-03-07T12:12:46.802Z,1007.7
2017-03-07T12:13:46.870Z,1007.67
2017-03-07T12:14:46.838Z,1007.74
2017-03-07T12:15:46.855Z,1007.76
2017-03-07T12:16:46.873Z,1007.76
2017-03-07T12:17:46.889Z,1007.76
2017-03-07T12:18:46.908Z,1007.77
2017-03-07T12:19:46.926Z,1007.82
2017-03-07T12:20:46.943Z,1007.84
2017-03-07T12:21:46.961Z,1007.77
2017-03-07T12:22:46.979Z,1007.82
2017-03-07T12:24:47.014Z,1007.85
2017-03-07T12:25:47.032Z,1007.87
2017-03-07T12:26:47.049Z,1007.88
2017-03-07T12:27:47.068Z,1007.91
2017-03-07T12:28:47.085Z,1007.97
2017-03-07T12:29:47.103Z,1007.96
2017-03-07T12:30:47.121Z,1007.94
2017-03-07T12:31:47.138Z,1007.99
2017-03-07T12:32:47.156Z,1007.99
2017-03-07T12:33:47.174Z,1007.98
2017-03-07T12:34:47.241Z,1008.04
2017-03-07T12:35:47.209Z,1008.02
2017-03-07T12:36:47.227Z,1008.07
2017-03-07T12:37:47.245Z,1008.08
2017-03-07T12:38:47.262Z,1008.09
2017-03-07T12:40:47.298Z,1008.11
2017-03-07T12:41:47.315Z,1008.1
2017-03-07T12:42:47.333Z,1008.1
2017-03-07T12:43:47.351Z,1008.11
2017-03-07T12:44:47.368Z,1008.1
2017-03-07T12:45:47.385Z,1008.12
2017-03-07T12:46:47.403Z,1008.09
2017-03-07T12:47:47.422Z,1008.09
2017-03-07T12:48:47.439Z,1008.16
2017-03-07T12:49:47.456Z,1008.2
2017-03-07T12:50:47.474Z,1008.22
2017-03-07T12:51:47.490Z,1008.22
2017-03-07T12:52:47.509Z,1008.25
2017-03-07T12:53:47.527Z,1008.25